sensor_id;sensor_type;location;lat;lon;timestamp;P1;durP1;ratioP1;P2;durP2;ratioP2
13989;SDS011;7069;52.528;13.316;2023-05-10T00:02:00;6.45;;;4.68;;
13989;SDS011;7069;52.528;13.316;2023-05-10T00:04:27;5.05;;;4.55;;
13989;SDS011;7069;52.528;13.316;2023-05-10T00:06:54;6.07;;;4.47;;
13989;SDS011;7069;52.528;13.316;2023-05-10T00:09:22;5.03;;;4.55;;
13989;SDS011;7069;52.528;13.316;2023-05-10T00:11:48;5.45;;;4.88;;
13989;SDS011;7069;52.528;13.316;2023-05-10T00:14:15;7.10;;;5.15;;
13989;SDS011;7069;52.528;13.316;2023-05-10T00:16:41;5.22;;;4.82;;
13989;SDS011;7069;52.528;13.316;2023-05-10T00:19:08;7.13;;;4.65;;
13989;SDS011;7069;52.528;13.316;2023-05-10T00:21:35;4.88;;;4.38;;
13989;SDS011;7069;52.528;13.316;2023-05-10T00:24:01;5.47;;;4.97;;
13989;SDS011;7069;52.528;13.316;2023-05-10T00:26:29;5.35;;;4.85;;
13989;SDS011;7069;52.528;13.316;2023-05-10T00:28:56;5.07;;;4.25;;
13989;SDS011;7069;52.528;13.316;2023-05-10T00:31:23;5.18;;;4.72;;
13989;SDS011;7069;52.528;13.316;2023-05-10T00:33:50;4.90;;;4.40;;
13989;SDS011;7069;52.528;13.316;2023-05-10T00:36:16;8.77;;;4.90;;
13989;SDS011;7069;52.528;13.316;2023-05-10T00:38:43;6.60;;;4.70;;
13989;SDS011;7069;52.528;13.316;2023-05-10T00:41:10;5.90;;;4.68;;
13989;SDS011;7069;52.528;13.316;2023-05-10T00:43:38;5.82;;;4.40;;
13989;SDS011;7069;52.528;13.316;2023-05-10T00:46:04;5.85;;;5.25;;
13989;SDS011;7069;52.528;13.316;2023-05-10T00:48:31;5.82;;;5.32;;
13989;SDS011;7069;52.528;13.316;2023-05-10T00:50:58;7.63;;;5.30;;
13989;SDS011;7069;52.528;13.316;2023-05-10T00:53:25;6.05;;;5.30;;
13989;SDS011;7069;52.528;13.316;2023-05-10T00:55:51;5.80;;;5.15;;
13989;SDS011;7069;52.528;13.316;2023-05-10T00:58:18;5.28;;;4.78;;
13989;SDS011;7069;52.528;13.316;2023-05-10T01:00:46;5.93;;;5.35;;
13989;SDS011;7069;52.528;13.316;2023-05-10T01:03:13;5.70;;;5.20;;
13989;SDS011;7069;52.528;13.316;2023-05-10T01:05:40;6.32;;;5.72;;
13989;SDS011;7069;52.528;13.316;2023-05-10T01:08:07;6.68;;;5.53;;
13989;SDS011;7069;52.528;13.316;2023-05-10T01:10:34;6.18;;;5.53;;
13989;SDS011;7069;52.528;13.316;2023-05-10T01:13:01;6.55;;;5.93;;
13989;SDS011;7069;52.528;13.316;2023-05-10T01:15:28;6.45;;;5.30;;
13989;SDS011;7069;52.528;13.316;2023-05-10T01:17:56;7.20;;;6.00;;
13989;SDS011;7069;52.528;13.316;2023-05-10T01:20:23;6.75;;;6.15;;
13989;SDS011;7069;52.528;13.316;2023-05-10T01:22:54;7.22;;;5.80;;
13989;SDS011;7069;52.528;13.316;2023-05-10T01:28:29;6.80;;;5.70;;
13989;SDS011;7069;52.528;13.316;2023-05-10T01:31:08;6.30;;;5.65;;
13989;SDS011;7069;52.528;13.316;2023-05-10T01:33:43;9.30;;;5.57;;
13989;SDS011;7069;52.528;13.316;2023-05-10T01:36:13;5.68;;;5.00;;
13989;SDS011;7069;52.528;13.316;2023-05-10T01:38:42;8.98;;;5.38;;
13989;SDS011;7069;52.528;13.316;2023-05-10T01:41:12;5.70;;;5.03;;
13989;SDS011;7069;52.528;13.316;2023-05-10T01:43:42;6.53;;;5.93;;
13989;SDS011;7069;52.528;13.316;2023-05-10T01:46:10;6.88;;;5.32;;
13989;SDS011;7069;52.528;13.316;2023-05-10T01:48:46;5.78;;;5.10;;
13989;SDS011;7069;52.528;13.316;2023-05-10T01:51:14;5.60;;;5.10;;
13989;SDS011;7069;52.528;13.316;2023-05-10T01:53:43;5.90;;;5.40;;
13989;SDS011;7069;52.528;13.316;2023-05-10T01:56:10;7.15;;;5.55;;
13989;SDS011;7069;52.528;13.316;2023-05-10T01:58:38;6.22;;;5.55;;
13989;SDS011;7069;52.528;13.316;2023-05-10T02:01:07;6.40;;;5.50;;
13989;SDS011;7069;52.528;13.316;2023-05-10T02:03:34;7.20;;;6.15;;
13989;SDS011;7069;52.528;13.316;2023-05-10T02:06:03;6.18;;;5.50;;
13989;SDS011;7069;52.528;13.316;2023-05-10T02:08:31;5.85;;;5.25;;
13989;SDS011;7069;52.528;13.316;2023-05-10T02:10:58;9.00;;;5.55;;
13989;SDS011;7069;52.528;13.316;2023-05-10T02:13:24;6.13;;;5.53;;
13989;SDS011;7069;52.528;13.316;2023-05-10T02:15:52;5.18;;;4.68;;
13989;SDS011;7069;52.528;13.316;2023-05-10T02:18:19;5.90;;;5.30;;
13989;SDS011;7069;52.528;13.316;2023-05-10T02:20:46;7.43;;;5.22;;
13989;SDS011;7069;52.528;13.316;2023-05-10T02:23:15;6.00;;;5.43;;
13989;SDS011;7069;52.528;13.316;2023-05-10T02:25:43;5.65;;;5.10;;
13989;SDS011;7069;52.528;13.316;2023-05-10T02:28:10;6.00;;;4.70;;
13989;SDS011;7069;52.528;13.316;2023-05-10T02:30:37;12.10;;;5.10;;
13989;SDS011;7069;52.528;13.316;2023-05-10T02:33:04;9.70;;;5.55;;
13989;SDS011;7069;52.528;13.316;2023-05-10T02:35:31;5.65;;;5.10;;
13989;SDS011;7069;52.528;13.316;2023-05-10T02:37:59;5.75;;;5.13;;
13989;SDS011;7069;52.528;13.316;2023-05-10T02:40:28;6.68;;;4.55;;
13989;SDS011;7069;52.528;13.316;2023-05-10T02:42:56;4.85;;;4.45;;
13989;SDS011;7069;52.528;13.316;2023-05-10T02:45:24;6.20;;;5.03;;
13989;SDS011;7069;52.528;13.316;2023-05-10T02:47:53;8.30;;;5.60;;
13989;SDS011;7069;52.528;13.316;2023-05-10T02:50:20;5.63;;;5.05;;
13989;SDS011;7069;52.528;13.316;2023-05-10T02:52:49;6.15;;;5.40;;
13989;SDS011;7069;52.528;13.316;2023-05-10T02:55:17;5.80;;;5.15;;
13989;SDS011;7069;52.528;13.316;2023-05-10T02:57:48;5.95;;;5.35;;
13989;SDS011;7069;52.528;13.316;2023-05-10T03:00:17;6.13;;;5.55;;
13989;SDS011;7069;52.528;13.316;2023-05-10T03:02:44;7.35;;;5.65;;
13989;SDS011;7069;52.528;13.316;2023-05-10T03:05:10;6.63;;;4.57;;
13989;SDS011;7069;52.528;13.316;2023-05-10T03:07:37;7.35;;;5.18;;
13989;SDS011;7069;52.528;13.316;2023-05-10T03:10:04;5.80;;;5.22;;
13989;SDS011;7069;52.528;13.316;2023-05-10T03:12:33;5.65;;;5.05;;
13989;SDS011;7069;52.528;13.316;2023-05-10T03:15:03;6.28;;;5.03;;
13989;SDS011;7069;52.528;13.316;2023-05-10T03:17:35;7.13;;;4.85;;
13989;SDS011;7069;52.528;13.316;2023-05-10T03:20:08;6.18;;;5.32;;
13989;SDS011;7069;52.528;13.316;2023-05-10T03:22:37;5.07;;;4.63;;
13989;SDS011;7069;52.528;13.316;2023-05-10T03:25:05;9.80;;;5.32;;
13989;SDS011;7069;52.528;13.316;2023-05-10T03:27:32;5.63;;;4.97;;
13989;SDS011;7069;52.528;13.316;2023-05-10T03:29:58;5.70;;;4.93;;
13989;SDS011;7069;52.528;13.316;2023-05-10T03:32:27;5.03;;;4.40;;
13989;SDS011;7069;52.528;13.316;2023-05-10T03:34:55;7.07;;;5.03;;
13989;SDS011;7069;52.528;13.316;2023-05-10T03:37:22;5.30;;;4.82;;
13989;SDS011;7069;52.528;13.316;2023-05-10T03:39:48;5.82;;;5.22;;
13989;SDS011;7069;52.528;13.316;2023-05-10T03:42:15;5.07;;;4.57;;
13989;SDS011;7069;52.528;13.316;2023-05-10T03:44:43;6.75;;;5.65;;
13989;SDS011;7069;52.528;13.316;2023-05-10T03:47:09;5.60;;;5.10;;
13989;SDS011;7069;52.528;13.316;2023-05-10T03:49:37;6.20;;;5.13;;
13989;SDS011;7069;52.528;13.316;2023-05-10T03:52:04;6.13;;;5.00;;
13989;SDS011;7069;52.528;13.316;2023-05-10T03:54:31;4.55;;;4.15;;
13989;SDS011;7069;52.528;13.316;2023-05-10T03:56:58;5.03;;;4.30;;
13989;SDS011;7069;52.528;13.316;2023-05-10T03:59:25;4.82;;;4.45;;
13989;SDS011;7069;52.528;13.316;2023-05-10T04:01:52;5.40;;;4.70;;
13989;SDS011;7069;52.528;13.316;2023-05-10T04:04:18;7.97;;;4.70;;
13989;SDS011;7069;52.528;13.316;2023-05-10T04:06:48;7.13;;;4.65;;
13989;SDS011;7069;52.528;13.316;2023-05-10T04:09:14;4.65;;;4.25;;
13989;SDS011;7069;52.528;13.316;2023-05-10T04:11:41;6.05;;;4.32;;
13989;SDS011;7069;52.528;13.316;2023-05-10T04:14:08;5.37;;;4.87;;
13989;SDS011;7069;52.528;13.316;2023-05-10T04:16:37;6.35;;;4.47;;
13989;SDS011;7069;52.528;13.316;2023-05-10T04:19:04;4.22;;;3.90;;
13989;SDS011;7069;52.528;13.316;2023-05-10T04:21:30;5.28;;;4.30;;
13989;SDS011;7069;52.528;13.316;2023-05-10T04:23:59;8.50;;;4.75;;
13989;SDS011;7069;52.528;13.316;2023-05-10T04:26:25;5.88;;;4.53;;
13989;SDS011;7069;52.528;13.316;2023-05-10T04:28:51;5.38;;;4.88;;
13989;SDS011;7069;52.528;13.316;2023-05-10T04:31:18;5.50;;;4.38;;
13989;SDS011;7069;52.528;13.316;2023-05-10T04:33:45;6.10;;;4.43;;
13989;SDS011;7069;52.528;13.316;2023-05-10T04:36:11;5.85;;;4.88;;
13989;SDS011;7069;52.528;13.316;2023-05-10T04:38:38;7.63;;;4.93;;
13989;SDS011;7069;52.528;13.316;2023-05-10T04:41:07;5.35;;;4.50;;
13989;SDS011;7069;52.528;13.316;2023-05-10T04:43:34;5.07;;;4.25;;
13989;SDS011;7069;52.528;13.316;2023-05-10T04:46:01;6.90;;;4.45;;
13989;SDS011;7069;52.528;13.316;2023-05-10T04:48:28;4.70;;;4.25;;
13989;SDS011;7069;52.528;13.316;2023-05-10T04:50:54;4.55;;;4.03;;
13989;SDS011;7069;52.528;13.316;2023-05-10T04:53:21;4.78;;;4.38;;
13989;SDS011;7069;52.528;13.316;2023-05-10T04:55:48;4.68;;;4.20;;
13989;SDS011;7069;52.528;13.316;2023-05-10T04:58:16;4.90;;;3.92;;
13989;SDS011;7069;52.528;13.316;2023-05-10T05:00:43;5.35;;;4.25;;
13989;SDS011;7069;52.528;13.316;2023-05-10T05:03:10;6.05;;;4.55;;
13989;SDS011;7069;52.528;13.316;2023-05-10T05:05:36;4.68;;;4.25;;
13989;SDS011;7069;52.528;13.316;2023-05-10T05:08:03;6.88;;;4.25;;
13989;SDS011;7069;52.528;13.316;2023-05-10T05:10:30;4.88;;;4.35;;
13989;SDS011;7069;52.528;13.316;2023-05-10T05:12:56;4.47;;;4.07;;
13989;SDS011;7069;52.528;13.316;2023-05-10T05:15:24;4.95;;;3.95;;
13989;SDS011;7069;52.528;13.316;2023-05-10T05:17:51;4.47;;;4.05;;
13989;SDS011;7069;52.528;13.316;2023-05-10T05:20:18;4.88;;;4.32;;
13989;SDS011;7069;52.528;13.316;2023-05-10T05:22:45;7.60;;;4.00;;
13989;SDS011;7069;52.528;13.316;2023-05-10T05:25:11;5.72;;;4.28;;
13989;SDS011;7069;52.528;13.316;2023-05-10T05:27:38;3.97;;;3.60;;
13989;SDS011;7069;52.528;13.316;2023-05-10T05:30:05;6.68;;;4.60;;
13989;SDS011;7069;52.528;13.316;2023-05-10T05:32:33;5.53;;;3.72;;
13989;SDS011;7069;52.528;13.316;2023-05-10T05:35:00;5.80;;;3.53;;
13989;SDS011;7069;52.528;13.316;2023-05-10T05:37:27;4.85;;;3.90;;
13989;SDS011;7069;52.528;13.316;2023-05-10T05:39:54;4.65;;;3.58;;
13989;SDS011;7069;52.528;13.316;2023-05-10T05:42:20;5.30;;;3.80;;
13989;SDS011;7069;52.528;13.316;2023-05-10T05:44:47;7.43;;;4.20;;
13989;SDS011;7069;52.528;13.316;2023-05-10T05:47:14;5.55;;;3.70;;
13989;SDS011;7069;52.528;13.316;2023-05-10T05:49:42;4.63;;;3.90;;
13989;SDS011;7069;52.528;13.316;2023-05-10T05:52:10;4.28;;;3.70;;
13989;SDS011;7069;52.528;13.316;2023-05-10T05:54:37;4.22;;;3.20;;
13989;SDS011;7069;52.528;13.316;2023-05-10T05:57:04;4.13;;;3.17;;
13989;SDS011;7069;52.528;13.316;2023-05-10T05:59:30;6.97;;;3.75;;
13989;SDS011;7069;52.528;13.316;2023-05-10T06:01:57;4.53;;;2.97;;
13989;SDS011;7069;52.528;13.316;2023-05-10T06:04:24;4.30;;;3.22;;
13989;SDS011;7069;52.528;13.316;2023-05-10T06:06:51;5.15;;;3.20;;
13989;SDS011;7069;52.528;13.316;2023-05-10T06:09:18;3.70;;;3.33;;
13989;SDS011;7069;52.528;13.316;2023-05-10T06:11:45;4.85;;;4.32;;
13989;SDS011;7069;52.528;13.316;2023-05-10T06:14:11;4.25;;;3.17;;
13989;SDS011;7069;52.528;13.316;2023-05-10T06:16:38;3.50;;;3.20;;
13989;SDS011;7069;52.528;13.316;2023-05-10T06:19:05;3.00;;;2.70;;
13989;SDS011;7069;52.528;13.316;2023-05-10T06:21:32;4.50;;;3.65;;
13989;SDS011;7069;52.528;13.316;2023-05-10T06:24:00;3.42;;;3.08;;
13989;SDS011;7069;52.528;13.316;2023-05-10T06:26:27;3.47;;;3.10;;
13989;SDS011;7069;52.528;13.316;2023-05-10T06:28:54;3.88;;;3.20;;
13989;SDS011;7069;52.528;13.316;2023-05-10T06:31:20;6.07;;;3.38;;
13989;SDS011;7069;52.528;13.316;2023-05-10T06:33:47;3.53;;;3.15;;
13989;SDS011;7069;52.528;13.316;2023-05-10T06:36:13;4.30;;;3.35;;
13989;SDS011;7069;52.528;13.316;2023-05-10T06:38:40;4.60;;;3.42;;
13989;SDS011;7069;52.528;13.316;2023-05-10T06:41:08;3.58;;;3.28;;
13989;SDS011;7069;52.528;13.316;2023-05-10T06:43:34;3.95;;;2.92;;
13989;SDS011;7069;52.528;13.316;2023-05-10T06:46:04;3.53;;;3.22;;
13989;SDS011;7069;52.528;13.316;2023-05-10T06:48:31;4.20;;;3.10;;
13989;SDS011;7069;52.528;13.316;2023-05-10T06:50:58;5.85;;;3.38;;
13989;SDS011;7069;52.528;13.316;2023-05-10T06:53:24;8.98;;;2.88;;
13989;SDS011;7069;52.528;13.316;2023-05-10T06:55:51;4.43;;;3.08;;
13989;SDS011;7069;52.528;13.316;2023-05-10T06:58:19;3.67;;;3.00;;
13989;SDS011;7069;52.528;13.316;2023-05-10T07:00:46;3.83;;;3.03;;
13989;SDS011;7069;52.528;13.316;2023-05-10T07:03:13;5.13;;;3.00;;
13989;SDS011;7069;52.528;13.316;2023-05-10T07:05:39;3.97;;;2.85;;
13989;SDS011;7069;52.528;13.316;2023-05-10T07:08:06;3.00;;;2.70;;
13989;SDS011;7069;52.528;13.316;2023-05-10T07:10:33;6.32;;;2.70;;
13989;SDS011;7069;52.528;13.316;2023-05-10T07:13:00;2.95;;;2.72;;
13989;SDS011;7069;52.528;13.316;2023-05-10T07:15:28;2.83;;;2.53;;
13989;SDS011;7069;52.528;13.316;2023-05-10T07:17:54;4.65;;;2.58;;
13989;SDS011;7069;52.528;13.316;2023-05-10T07:20:21;3.25;;;2.95;;
13989;SDS011;7069;52.528;13.316;2023-05-10T07:22:48;4.15;;;2.47;;
13989;SDS011;7069;52.528;13.316;2023-05-10T07:25:15;4.68;;;2.70;;
13989;SDS011;7069;52.528;13.316;2023-05-10T07:27:41;2.72;;;2.53;;
13989;SDS011;7069;52.528;13.316;2023-05-10T07:30:08;3.85;;;2.65;;
13989;SDS011;7069;52.528;13.316;2023-05-10T07:32:37;3.67;;;2.65;;
13989;SDS011;7069;52.528;13.316;2023-05-10T07:35:04;3.35;;;2.60;;
13989;SDS011;7069;52.528;13.316;2023-05-10T07:37:31;3.50;;;2.92;;
13989;SDS011;7069;52.528;13.316;2023-05-10T07:39:58;3.25;;;2.60;;
13989;SDS011;7069;52.528;13.316;2023-05-10T07:42:25;4.00;;;2.45;;
13989;SDS011;7069;52.528;13.316;2023-05-10T07:44:51;3.90;;;2.40;;
13989;SDS011;7069;52.528;13.316;2023-05-10T07:47:18;3.08;;;2.78;;
13989;SDS011;7069;52.528;13.316;2023-05-10T07:49:46;3.15;;;2.85;;
13989;SDS011;7069;52.528;13.316;2023-05-10T07:52:12;3.58;;;2.38;;
13989;SDS011;7069;52.528;13.316;2023-05-10T07:54:39;4.45;;;3.47;;
13989;SDS011;7069;52.528;13.316;2023-05-10T07:57:05;2.95;;;2.42;;
13989;SDS011;7069;52.528;13.316;2023-05-10T07:59:32;2.53;;;2.33;;
13989;SDS011;7069;52.528;13.316;2023-05-10T08:01:58;2.72;;;2.45;;
13989;SDS011;7069;52.528;13.316;2023-05-10T08:04:25;5.18;;;2.85;;
13989;SDS011;7069;52.528;13.316;2023-05-10T08:06:53;2.72;;;2.53;;
13989;SDS011;7069;52.528;13.316;2023-05-10T08:09:19;7.00;;;2.70;;
13989;SDS011;7069;52.528;13.316;2023-05-10T08:11:48;3.67;;;2.60;;
13989;SDS011;7069;52.528;13.316;2023-05-10T08:14:15;2.80;;;2.60;;
13989;SDS011;7069;52.528;13.316;2023-05-10T08:16:41;3.30;;;3.08;;
13989;SDS011;7069;52.528;13.316;2023-05-10T08:19:07;3.45;;;2.42;;
13989;SDS011;7069;52.528;13.316;2023-05-10T08:21:34;3.40;;;2.72;;
13989;SDS011;7069;52.528;13.316;2023-05-10T08:24:02;8.27;;;3.00;;
13989;SDS011;7069;52.528;13.316;2023-05-10T08:26:28;2.95;;;2.65;;
13989;SDS011;7069;52.528;13.316;2023-05-10T08:28:55;3.25;;;2.10;;
13989;SDS011;7069;52.528;13.316;2023-05-10T08:31:21;3.10;;;2.78;;
13989;SDS011;7069;52.528;13.316;2023-05-10T08:33:48;2.58;;;2.38;;
13989;SDS011;7069;52.528;13.316;2023-05-10T08:36:14;5.47;;;2.67;;
13989;SDS011;7069;52.528;13.316;2023-05-10T08:38:44;3.60;;;2.92;;
13989;SDS011;7069;52.528;13.316;2023-05-10T08:41:12;4.72;;;2.78;;
13989;SDS011;7069;52.528;13.316;2023-05-10T08:43:39;5.40;;;3.10;;
13989;SDS011;7069;52.528;13.316;2023-05-10T08:46:11;3.85;;;2.65;;
13989;SDS011;7069;52.528;13.316;2023-05-10T08:48:41;3.38;;;2.70;;
13989;SDS011;7069;52.528;13.316;2023-05-10T08:51:09;9.52;;;3.05;;
13989;SDS011;7069;52.528;13.316;2023-05-10T08:53:35;4.70;;;2.80;;
13989;SDS011;7069;52.528;13.316;2023-05-10T08:56:03;5.25;;;2.40;;
13989;SDS011;7069;52.528;13.316;2023-05-10T08:58:31;2.88;;;2.40;;
13989;SDS011;7069;52.528;13.316;2023-05-10T09:00:58;3.15;;;2.80;;
13989;SDS011;7069;52.528;13.316;2023-05-10T09:03:25;3.53;;;2.33;;
13989;SDS011;7069;52.528;13.316;2023-05-10T09:05:51;5.10;;;3.00;;
13989;SDS011;7069;52.528;13.316;2023-05-10T09:08:18;3.92;;;3.28;;
13989;SDS011;7069;52.528;13.316;2023-05-10T09:10:44;4.38;;;3.00;;
13989;SDS011;7069;52.528;13.316;2023-05-10T09:13:12;3.38;;;2.72;;
13989;SDS011;7069;52.528;13.316;2023-05-10T09:15:43;4.50;;;2.53;;
13989;SDS011;7069;52.528;13.316;2023-05-10T09:18:10;3.25;;;2.45;;
13989;SDS011;7069;52.528;13.316;2023-05-10T09:20:37;7.03;;;3.15;;
13989;SDS011;7069;52.528;13.316;2023-05-10T09:23:03;2.80;;;2.58;;
13989;SDS011;7069;52.528;13.316;2023-05-10T09:25:30;3.42;;;2.78;;
13989;SDS011;7069;52.528;13.316;2023-05-10T09:27:58;3.15;;;2.33;;
13989;SDS011;7069;52.528;13.316;2023-05-10T09:30:25;3.83;;;3.15;;
13989;SDS011;7069;52.528;13.316;2023-05-10T09:32:53;2.50;;;2.30;;
13989;SDS011;7069;52.528;13.316;2023-05-10T09:35:21;5.57;;;2.88;;
13989;SDS011;7069;52.528;13.316;2023-05-10T09:37:48;3.90;;;2.50;;
13989;SDS011;7069;52.528;13.316;2023-05-10T09:40:15;2.78;;;2.58;;
13989;SDS011;7069;52.528;13.316;2023-05-10T09:42:42;2.75;;;2.28;;
13989;SDS011;7069;52.528;13.316;2023-05-10T09:45:09;6.00;;;3.22;;
13989;SDS011;7069;52.528;13.316;2023-05-10T09:47:35;2.85;;;2.58;;
13989;SDS011;7069;52.528;13.316;2023-05-10T09:50:03;3.00;;;2.70;;
13989;SDS011;7069;52.528;13.316;2023-05-10T09:52:30;3.33;;;2.50;;
13989;SDS011;7069;52.528;13.316;2023-05-10T09:54:57;5.18;;;2.67;;
13989;SDS011;7069;52.528;13.316;2023-05-10T09:57:24;2.85;;;2.45;;
13989;SDS011;7069;52.528;13.316;2023-05-10T09:59:50;2.95;;;2.50;;
13989;SDS011;7069;52.528;13.316;2023-05-10T10:02:19;2.90;;;2.70;;
13989;SDS011;7069;52.528;13.316;2023-05-10T10:04:45;2.65;;;2.45;;
13989;SDS011;7069;52.528;13.316;2023-05-10T10:07:17;3.88;;;3.08;;
13989;SDS011;7069;52.528;13.316;2023-05-10T10:09:48;3.42;;;2.75;;
13989;SDS011;7069;52.528;13.316;2023-05-10T10:12:14;3.53;;;2.28;;
13989;SDS011;7069;52.528;13.316;2023-05-10T10:14:41;2.72;;;2.47;;
13989;SDS011;7069;52.528;13.316;2023-05-10T10:17:07;4.25;;;2.40;;
13989;SDS011;7069;52.528;13.316;2023-05-10T10:19:34;6.63;;;2.97;;
13989;SDS011;7069;52.528;13.316;2023-05-10T10:22:01;4.72;;;3.03;;
13989;SDS011;7069;52.528;13.316;2023-05-10T10:24:29;2.75;;;2.35;;
13989;SDS011;7069;52.528;13.316;2023-05-10T10:26:55;2.30;;;2.13;;
13989;SDS011;7069;52.528;13.316;2023-05-10T10:29:23;3.35;;;2.92;;
13989;SDS011;7069;52.528;13.316;2023-05-10T10:31:52;2.72;;;2.53;;
13989;SDS011;7069;52.528;13.316;2023-05-10T10:34:25;3.63;;;3.33;;
13989;SDS011;7069;52.528;13.316;2023-05-10T10:36:52;2.97;;;2.45;;
13989;SDS011;7069;52.528;13.316;2023-05-10T10:39:20;2.50;;;2.30;;
13989;SDS011;7069;52.528;13.316;2023-05-10T10:41:51;2.50;;;2.30;;
13989;SDS011;7069;52.528;13.316;2023-05-10T10:44:24;4.43;;;3.10;;
13989;SDS011;7069;52.528;13.316;2023-05-10T10:47:03;2.53;;;2.33;;
13989;SDS011;7069;52.528;13.316;2023-05-10T10:49:36;2.72;;;2.28;;
13989;SDS011;7069;52.528;13.316;2023-05-10T10:54:59;4.47;;;2.60;;
13989;SDS011;7069;52.528;13.316;2023-05-10T10:57:27;3.08;;;2.72;;
13989;SDS011;7069;52.528;13.316;2023-05-10T11:02:45;3.08;;;2.67;;
13989;SDS011;7069;52.528;13.316;2023-05-10T11:05:23;4.80;;;2.58;;
13989;SDS011;7069;52.528;13.316;2023-05-10T11:07:53;3.10;;;2.78;;
13989;SDS011;7069;52.528;13.316;2023-05-10T11:10:20;2.92;;;2.72;;
13989;SDS011;7069;52.528;13.316;2023-05-10T11:12:54;3.70;;;2.58;;
13989;SDS011;7069;52.528;13.316;2023-05-10T11:15:28;2.72;;;2.53;;
13989;SDS011;7069;52.528;13.316;2023-05-10T11:17:55;2.92;;;2.72;;
13989;SDS011;7069;52.528;13.316;2023-05-10T11:20:21;2.83;;;2.50;;
13989;SDS011;7069;52.528;13.316;2023-05-10T11:22:50;3.75;;;2.85;;
13989;SDS011;7069;52.528;13.316;2023-05-10T11:25:17;3.15;;;2.55;;
13989;SDS011;7069;52.528;13.316;2023-05-10T11:27:43;2.33;;;2.20;;
13989;SDS011;7069;52.528;13.316;2023-05-10T11:30:11;2.80;;;2.50;;
13989;SDS011;7069;52.528;13.316;2023-05-10T11:32:38;2.97;;;2.20;;
13989;SDS011;7069;52.528;13.316;2023-05-10T11:35:07;2.92;;;2.58;;
13989;SDS011;7069;52.528;13.316;2023-05-10T11:37:34;3.42;;;2.42;;
13989;SDS011;7069;52.528;13.316;2023-05-10T11:40:00;2.22;;;2.00;;
13989;SDS011;7069;52.528;13.316;2023-05-10T11:42:28;2.83;;;2.28;;
13989;SDS011;7069;52.528;13.316;2023-05-10T11:44:54;2.67;;;2.47;;
13989;SDS011;7069;52.528;13.316;2023-05-10T11:47:22;2.53;;;2.25;;
13989;SDS011;7069;52.528;13.316;2023-05-10T11:49:49;5.45;;;2.13;;
13989;SDS011;7069;52.528;13.316;2023-05-10T11:52:15;2.80;;;2.60;;
13989;SDS011;7069;52.528;13.316;2023-05-10T11:54:44;2.72;;;2.45;;
13989;SDS011;7069;52.528;13.316;2023-05-10T11:57:11;2.40;;;2.20;;
13989;SDS011;7069;52.528;13.316;2023-05-10T11:59:37;3.35;;;2.00;;
13989;SDS011;7069;52.528;13.316;2023-05-10T12:02:04;2.65;;;2.45;;
13989;SDS011;7069;52.528;13.316;2023-05-10T12:04:32;2.70;;;2.28;;
13989;SDS011;7069;52.528;13.316;2023-05-10T12:06:58;2.28;;;2.00;;
13989;SDS011;7069;52.528;13.316;2023-05-10T12:09:25;2.38;;;2.13;;
13989;SDS011;7069;52.528;13.316;2023-05-10T12:11:54;3.40;;;2.38;;
13989;SDS011;7069;52.528;13.316;2023-05-10T12:14:21;4.38;;;2.05;;
13989;SDS011;7069;52.528;13.316;2023-05-10T12:16:47;2.40;;;2.20;;
13989;SDS011;7069;52.528;13.316;2023-05-10T12:19:18;2.30;;;2.13;;
13989;SDS011;7069;52.528;13.316;2023-05-10T12:21:45;9.88;;;2.35;;
13989;SDS011;7069;52.528;13.316;2023-05-10T12:24:12;6.05;;;2.33;;
13989;SDS011;7069;52.528;13.316;2023-05-10T12:26:41;2.22;;;1.95;;
13989;SDS011;7069;52.528;13.316;2023-05-10T12:29:14;2.55;;;2.35;;
13989;SDS011;7069;52.528;13.316;2023-05-10T12:31:53;4.35;;;2.38;;
13989;SDS011;7069;52.528;13.316;2023-05-10T12:34:26;3.45;;;2.05;;
13989;SDS011;7069;52.528;13.316;2023-05-10T12:36:54;2.75;;;2.45;;
13989;SDS011;7069;52.528;13.316;2023-05-10T12:39:21;2.35;;;2.15;;
13989;SDS011;7069;52.528;13.316;2023-05-10T12:41:47;2.80;;;2.50;;
13989;SDS011;7069;52.528;13.316;2023-05-10T12:44:13;5.50;;;2.30;;
13989;SDS011;7069;52.528;13.316;2023-05-10T12:46:40;3.25;;;2.20;;
13989;SDS011;7069;52.528;13.316;2023-05-10T12:49:06;2.40;;;2.20;;
13989;SDS011;7069;52.528;13.316;2023-05-10T12:51:32;2.28;;;2.08;;
13989;SDS011;7069;52.528;13.316;2023-05-10T12:54:00;2.47;;;2.28;;
13989;SDS011;7069;52.528;13.316;2023-05-10T12:56:27;2.38;;;2.17;;
13989;SDS011;7069;52.528;13.316;2023-05-10T12:58:53;7.20;;;3.58;;
13989;SDS011;7069;52.528;13.316;2023-05-10T13:01:19;2.45;;;2.00;;
13989;SDS011;7069;52.528;13.316;2023-05-10T13:03:46;4.53;;;2.53;;
13989;SDS011;7069;52.528;13.316;2023-05-10T13:06:13;3.22;;;2.72;;
13989;SDS011;7069;52.528;13.316;2023-05-10T13:08:39;2.80;;;2.50;;
13989;SDS011;7069;52.528;13.316;2023-05-10T13:11:07;2.78;;;2.25;;
13989;SDS011;7069;52.528;13.316;2023-05-10T13:13:33;3.28;;;2.17;;
13989;SDS011;7069;52.528;13.316;2023-05-10T13:16:00;4.75;;;2.33;;
13989;SDS011;7069;52.528;13.316;2023-05-10T13:18:26;2.67;;;1.95;;
13989;SDS011;7069;52.528;13.316;2023-05-10T13:23:19;2.80;;;2.50;;
13989;SDS011;7069;52.528;13.316;2023-05-10T13:25:46;3.92;;;2.53;;
13989;SDS011;7069;52.528;13.316;2023-05-10T13:28:13;3.65;;;2.28;;
13989;SDS011;7069;52.528;13.316;2023-05-10T13:30:40;4.95;;;2.42;;
13989;SDS011;7069;52.528;13.316;2023-05-10T13:33:06;2.63;;;2.42;;
13989;SDS011;7069;52.528;13.316;2023-05-10T13:35:33;4.47;;;2.08;;
13989;SDS011;7069;52.528;13.316;2023-05-10T13:37:59;3.00;;;2.28;;
13989;SDS011;7069;52.528;13.316;2023-05-10T13:40:25;6.57;;;2.38;;
13989;SDS011;7069;52.528;13.316;2023-05-10T13:42:53;2.30;;;2.00;;
13989;SDS011;7069;52.528;13.316;2023-05-10T13:45:20;2.85;;;2.58;;
13989;SDS011;7069;52.528;13.316;2023-05-10T13:47:47;5.00;;;1.90;;
13989;SDS011;7069;52.528;13.316;2023-05-10T13:50:13;4.47;;;2.20;;
13989;SDS011;7069;52.528;13.316;2023-05-10T13:52:40;4.03;;;2.67;;
13989;SDS011;7069;52.528;13.316;2023-05-10T13:55:06;2.33;;;2.13;;
13989;SDS011;7069;52.528;13.316;2023-05-10T13:57:33;3.67;;;2.15;;
13989;SDS011;7069;52.528;13.316;2023-05-10T14:00:00;4.45;;;2.33;;
13989;SDS011;7069;52.528;13.316;2023-05-10T14:02:29;2.85;;;2.20;;
13989;SDS011;7069;52.528;13.316;2023-05-10T14:04:55;4.72;;;2.25;;
13989;SDS011;7069;52.528;13.316;2023-05-10T14:07:21;3.03;;;2.55;;
13989;SDS011;7069;52.528;13.316;2023-05-10T14:09:48;2.10;;;2.00;;
13989;SDS011;7069;52.528;13.316;2023-05-10T14:12:14;3.17;;;2.47;;
13989;SDS011;7069;52.528;13.316;2023-05-10T14:14:41;2.90;;;2.67;;
13989;SDS011;7069;52.528;13.316;2023-05-10T14:17:07;3.13;;;2.50;;
13989;SDS011;7069;52.528;13.316;2023-05-10T14:19:35;2.30;;;2.20;;
13989;SDS011;7069;52.528;13.316;2023-05-10T14:22:01;4.60;;;2.03;;
13989;SDS011;7069;52.528;13.316;2023-05-10T14:24:28;3.85;;;2.10;;
13989;SDS011;7069;52.528;13.316;2023-05-10T14:26:54;6.00;;;2.92;;
13989;SDS011;7069;52.528;13.316;2023-05-10T14:29:20;2.50;;;2.30;;
13989;SDS011;7069;52.528;13.316;2023-05-10T14:31:47;3.47;;;2.38;;
13989;SDS011;7069;52.528;13.316;2023-05-10T14:34:13;5.45;;;2.35;;
13989;SDS011;7069;52.528;13.316;2023-05-10T14:36:41;2.83;;;1.80;;
13989;SDS011;7069;52.528;13.316;2023-05-10T14:39:08;7.60;;;2.17;;
13989;SDS011;7069;52.528;13.316;2023-05-10T14:41:35;2.47;;;2.28;;
13989;SDS011;7069;52.528;13.316;2023-05-10T14:44:02;1.95;;;1.85;;
13989;SDS011;7069;52.528;13.316;2023-05-10T14:46:29;2.03;;;1.92;;
13989;SDS011;7069;52.528;13.316;2023-05-10T14:48:55;3.47;;;1.92;;
13989;SDS011;7069;52.528;13.316;2023-05-10T14:51:21;5.03;;;2.72;;
13989;SDS011;7069;52.528;13.316;2023-05-10T14:53:49;2.55;;;2.35;;
13989;SDS011;7069;52.528;13.316;2023-05-10T14:56:15;3.75;;;2.92;;
13989;SDS011;7069;52.528;13.316;2023-05-10T14:58:42;3.92;;;2.38;;
13989;SDS011;7069;52.528;13.316;2023-05-10T15:01:08;2.40;;;2.20;;